Time;durP1;ratioP1;P1;durP2;ratioP2;P2;SDS_P1;SDS_P2;PMS_P1;PMS_P2;Temp;Humidity;BMP_temperature;BMP_pressure;BME280_temperature;BME280_humidity;BME280_pressure;Samples;Min_cycle;Max_cycle;Signal;HPM_P1;HPM_P2
2023/12/07 00:01:07;;;;;;;22.48;16.60;;;2.20;99.90;;;;;;5081216;28;20043;-72
2023/12/07 00:03:33;;;;;;;24.30;16.95;;;2.30;99.90;;;;;;5084559;28;20035;-72
2023/12/07 00:05:58;;;;;;;24.75;16.88;;;2.30;99.90;;;;;;5084860;28;20058;-72
2023/12/07 00:08:24;;;;;;;25.50;15.93;;;2.20;99.90;;;;;;5101975;28;20039;-72
2023/12/07 00:10:50;;;;;;;22.77;15.88;;;2.20;99.90;;;;;;5101499;28;20042;-72
2023/12/07 00:13:16;;;;;;;22.75;15.98;;;2.30;99.90;;;;;;5101593;28;20102;-72
2023/12/07 00:15:42;;;;;;;22.95;16.30;;;2.20;99.90;;;;;;5101621;28;20044;-72
2023/12/07 00:18:08;;;;;;;23.33;15.85;;;2.30;99.90;;;;;;5101609;28;20487;-72
2023/12/07 00:20:34;;;;;;;20.80;15.07;;;2.30;99.90;;;;;;5101631;28;20084;-72
2023/12/07 00:23:00;;;;;;;20.63;15.43;;;2.20;99.90;;;;;;5101518;28;20031;-72
2023/12/07 00:25:25;;;;;;;22.45;15.75;;;2.20;99.90;;;;;;5101443;28;20043;-72
2023/12/07 00:27:52;;;;;;;20.13;14.80;;;2.30;99.90;;;;;;5101457;28;20047;-72
2023/12/07 00:30:18;;;;;;;22.48;15.70;;;2.20;99.90;;;;;;5084678;28;20062;-73
2023/12/07 00:32:43;;;;;;;25.95;15.75;;;2.20;99.90;;;;;;5101462;28;20092;-72
2023/12/07 00:35:10;;;;;;;22.70;15.23;;;2.20;99.90;;;;;;5101426;28;20043;-72
2023/12/07 00:37:36;;;;;;;22.02;15.20;;;2.20;99.90;;;;;;5084608;28;20109;-72
2023/12/07 00:40:03;;;;;;;23.20;14.95;;;2.30;99.90;;;;;;5101438;28;20121;-67
2023/12/07 00:42:29;;;;;;;21.08;14.85;;;2.30;99.90;;;;;;5101495;28;20544;-67
2023/12/07 00:44:55;;;;;;;21.50;14.68;;;2.30;99.90;;;;;;5084291;28;20048;-66
2023/12/07 00:47:21;;;;;;;25.20;15.60;;;2.20;99.90;;;;;;5101062;28;20047;-66
2023/12/07 00:49:47;;;;;;;22.10;15.73;;;2.30;99.90;;;;;;5101262;28;20040;-66
2023/12/07 00:52:13;;;;;;;23.27;16.27;;;2.30;99.90;;;;;;5084419;28;20036;-66
2023/12/07 00:54:39;;;;;;;21.75;14.40;;;2.30;99.90;;;;;;5100952;28;20055;-66
2023/12/07 00:57:05;;;;;;;23.60;16.05;;;2.30;99.90;;;;;;5084259;28;20126;-66
2023/12/07 00:59:33;;;;;;;21.63;15.55;;;2.30;99.90;;;;;;5101020;28;20121;-66
2023/12/07 01:02:08;;;;;;;24.73;16.02;;;2.30;99.90;;;;;;5101031;28;20043;-66
2023/12/07 01:04:34;;;;;;;20.88;15.40;;;2.30;99.90;;;;;;5067438;28;20039;-65
2023/12/07 01:07:00;;;;;;;22.38;15.82;;;2.30;99.90;;;;;;5100927;28;20152;-66
2023/12/07 01:09:26;;;;;;;22.20;15.23;;;2.30;99.90;;;;;;5100845;28;20079;-66
2023/12/07 01:11:52;;;;;;;21.55;15.25;;;2.30;99.90;;;;;;5099646;28;20043;-66
2023/12/07 01:14:18;;;;;;;25.52;16.10;;;2.20;99.90;;;;;;5098088;28;20400;-66
2023/12/07 01:16:45;;;;;;;24.35;16.52;;;2.20;99.90;;;;;;5097945;28;20522;-66
2023/12/07 01:19:14;;;;;;;25.02;17.25;;;2.20;99.90;;;;;;5098034;28;20050;-66
2023/12/07 01:21:43;;;;;;;24.55;15.93;;;2.30;99.90;;;;;;5081146;28;20039;-66
2023/12/07 01:24:09;;;;;;;22.70;16.10;;;2.20;99.90;;;;;;5097853;28;20387;-66
2023/12/07 01:26:34;;;;;;;20.05;14.73;;;2.20;99.90;;;;;;5097578;28;20039;-66
2023/12/07 01:29:01;;;;;;;23.85;16.05;;;2.20;99.90;;;;;;5097544;28;20042;-67
2023/12/07 01:31:26;;;;;;;21.90;16.27;;;2.20;99.90;;;;;;5097648;28;20043;-66
2023/12/07 01:33:52;;;;;;;23.77;16.80;;;2.20;99.90;;;;;;5097172;28;20047;-67
2023/12/07 01:36:18;;;;;;;24.75;17.05;;;2.20;99.90;;;;;;5097569;28;20101;-66
2023/12/07 01:38:43;;;;;;;21.75;15.77;;;2.20;99.90;;;;;;5097346;28;20035;-66
2023/12/07 01:41:09;;;;;;;25.20;17.15;;;2.20;99.90;;;;;;5115659;28;20086;-67
2023/12/07 01:43:35;;;;;;;25.88;17.42;;;2.20;99.90;;;;;;5080443;28;20104;-66
2023/12/07 01:46:03;;;;;;;25.77;16.52;;;2.20;99.90;;;;;;5097038;28;20043;-67
2023/12/07 01:48:29;;;;;;;24.75;16.58;;;2.20;99.90;;;;;;5097267;28;20047;-66
2023/12/07 01:50:56;;;;;;;24.42;17.42;;;2.20;99.90;;;;;;5097100;28;20086;-66
2023/12/07 01:53:24;;;;;;;23.50;17.25;;;2.20;99.90;;;;;;5097171;28;20521;-66
2023/12/07 01:55:52;;;;;;;24.05;16.10;;;2.20;99.90;;;;;;5096942;28;20079;-66
2023/12/07 01:58:19;;;;;;;22.85;17.05;;;2.20;99.90;;;;;;5096914;28;20499;-66
2023/12/07 02:00:46;;;;;;;23.95;17.45;;;2.20;99.90;;;;;;5096921;28;20040;-66
2023/12/07 02:03:12;;;;;;;23.42;17.00;;;2.20;99.90;;;;;;5080307;28;20472;-66
2023/12/07 02:05:43;;;;;;;23.55;16.38;;;2.20;99.90;;;;;;5096736;28;20044;-66
2023/12/07 02:08:09;;;;;;;26.27;17.02;;;2.20;99.90;;;;;;5096829;28;20108;-67
2023/12/07 02:10:35;;;;;;;24.90;16.98;;;2.20;99.90;;;;;;5097039;28;20118;-67
2023/12/07 02:13:01;;;;;;;24.33;17.17;;;2.20;99.90;;;;;;5096674;28;20082;-67
2023/12/07 02:15:26;;;;;;;23.65;17.30;;;2.20;99.90;;;;;;5096852;28;20083;-66
2023/12/07 02:18:15;;;;;;;21.90;15.30;;;2.20;99.90;;;;;;5096558;28;20040;-66
2023/12/07 02:20:51;;;;;;;26.02;17.25;;;2.20;99.90;;;;;;5097118;28;20356;-66
2023/12/07 02:23:18;;;;;;;26.00;17.15;;;2.20;99.90;;;;;;5096517;28;20512;-67
2023/12/07 02:25:54;;;;;;;25.48;17.48;;;2.20;99.90;;;;;;5096486;28;20036;-66
2023/12/07 02:28:20;;;;;;;25.30;16.67;;;2.20;99.90;;;;;;5079543;28;20043;-69
2023/12/07 02:30:46;;;;;;;22.27;15.68;;;2.20;99.90;;;;;;5096717;28;20070;-66
2023/12/07 02:33:12;;;;;;;25.63;16.90;;;2.20;99.90;;;;;;5096457;28;20521;-66
2023/12/07 02:35:40;;;;;;;24.38;17.70;;;2.20;99.90;;;;;;5096368;28;20044;-67
2023/12/07 02:38:07;;;;;;;23.05;15.80;;;2.20;99.90;;;;;;5096076;28;20047;-66
2023/12/07 02:40:35;;;;;;;23.55;16.27;;;2.20;99.90;;;;;;5096424;28;20488;-67
2023/12/07 02:43:02;;;;;;;24.23;16.80;;;2.20;99.90;;;;;;5096001;28;20043;-67
2023/12/07 02:45:29;;;;;;;24.05;16.85;;;2.20;99.90;;;;;;5096312;28;20070;-67
2023/12/07 02:47:54;;;;;;;24.48;16.85;;;2.30;99.90;;;;;;5096065;28;20082;-67
2023/12/07 02:50:20;;;;;;;26.10;17.63;;;2.20;99.90;;;;;;5095851;28;20082;-67
2023/12/07 02:52:46;;;;;;;25.15;16.42;;;2.20;99.90;;;;;;5096038;28;20047;-67
2023/12/07 02:55:12;;;;;;;26.05;17.05;;;2.20;99.90;;;;;;5095700;28;20059;-67
2023/12/07 02:57:38;;;;;;;26.27;17.88;;;2.20;99.90;;;;;;5078888;28;20039;-67
2023/12/07 03:00:14;;;;;;;27.92;17.92;;;2.10;99.90;;;;;;5095870;28;20031;-72
2023/12/07 03:02:40;;;;;;;27.05;17.42;;;2.10;99.90;;;;;;5096113;28;20491;-72
2023/12/07 03:05:07;;;;;;;28.58;17.77;;;2.10;99.90;;;;;;5114033;28;20092;-72
2023/12/07 03:07:36;;;;;;;25.13;17.52;;;2.10;99.90;;;;;;5095596;28;20120;-72
2023/12/07 03:10:02;;;;;;;27.58;18.23;;;2.10;99.90;;;;;;5095780;28;20039;-73
2023/12/07 03:12:28;;;;;;;29.48;18.15;;;2.10;99.90;;;;;;5095817;28;20059;-72
2023/12/07 03:14:54;;;;;;;29.48;19.27;;;2.10;99.90;;;;;;5078909;28;20039;-73
2023/12/07 03:17:19;;;;;;;29.50;18.98;;;2.10;99.90;;;;;;5061828;28;20044;-72
2023/12/07 03:19:45;;;;;;;31.15;18.73;;;2.10;99.90;;;;;;5095785;28;20047;-72
2023/12/07 03:22:13;;;;;;;28.83;18.60;;;2.10;99.90;;;;;;5095713;28;20035;-72
2023/12/07 03:24:40;;;;;;;29.58;18.80;;;2.10;99.90;;;;;;5095758;28;20497;-73
2023/12/07 03:27:05;;;;;;;29.90;19.55;;;2.10;99.90;;;;;;5095605;28;20047;-72
2023/12/07 03:29:32;;;;;;;28.17;19.35;;;2.00;99.90;;;;;;5095387;28;20122;-72
2023/12/07 03:31:58;;;;;;;26.23;18.77;;;2.00;99.90;;;;;;5095386;28;20078;-72
2023/12/07 03:34:24;;;;;;;30.40;19.52;;;1.90;99.90;;;;;;5095332;28;20070;-72
2023/12/07 03:36:50;;;;;;;31.13;19.33;;;1.90;99.90;;;;;;5078135;28;20126;-72
2023/12/07 03:39:22;;;;;;;29.52;19.60;;;1.90;99.90;;;;;;5095534;28;20090;-72
2023/12/07 03:41:48;;;;;;;27.15;18.90;;;1.90;99.90;;;;;;5095258;28;20063;-72
2023/12/07 03:44:14;;;;;;;30.77;19.02;;;1.80;99.90;;;;;;5095505;28;20069;-72
2023/12/07 03:46:40;;;;;;;32.53;19.13;;;1.80;99.90;;;;;;5095136;28;20048;-72
2023/12/07 03:49:06;;;;;;;34.13;20.52;;;1.70;99.90;;;;;;5094875;28;20047;-73
2023/12/07 03:51:31;;;;;;;32.55;19.67;;;1.70;99.90;;;;;;5095268;28;20099;-74
2023/12/07 03:53:57;;;;;;;29.30;19.67;;;1.70;99.90;;;;;;5095074;28;20048;-73
2023/12/07 03:56:32;;;;;;;30.85;20.27;;;1.60;99.90;;;;;;5094935;28;20051;-73
2023/12/07 03:58:58;;;;;;;30.83;20.02;;;1.60;99.90;;;;;;5094920;28;20038;-72
2023/12/07 04:01:25;;;;;;;30.00;19.45;;;1.60;99.90;;;;;;5078259;28;20039;-73
2023/12/07 04:03:52;;;;;;;31.63;20.48;;;1.60;99.90;;;;;;5095319;28;20480;-72
2023/12/07 04:06:18;;;;;;;33.65;21.13;;;1.70;99.90;;;;;;5111810;28;20042;-72
2023/12/07 04:08:44;;;;;;;33.22;21.58;;;1.60;99.90;;;;;;5095155;28;20093;-66
2023/12/07 04:11:10;;;;;;;33.58;22.65;;;1.70;99.90;;;;;;5094671;28;20035;-67
2023/12/07 04:13:36;;;;;;;34.10;22.08;;;1.70;99.90;;;;;;5078079;28;20479;-68
2023/12/07 04:16:03;;;;;;;33.00;21.58;;;1.60;99.90;;;;;;5094733;28;20044;-67
2023/12/07 04:18:29;;;;;;;33.25;22.02;;;1.60;99.90;;;;;;5094588;28;20040;-67
2023/12/07 04:20:54;;;;;;;32.25;21.77;;;1.60;99.90;;;;;;5078082;28;20549;-67
2023/12/07 04:23:20;;;;;;;35.85;21.75;;;1.70;99.90;;;;;;5094840;28;20038;-66
2023/12/07 04:25:46;;;;;;;34.05;22.08;;;1.60;99.90;;;;;;5094481;28;20040;-67
2023/12/07 04:28:11;;;;;;;37.97;23.92;;;1.50;99.90;;;;;;5094540;28;20043;-66
2023/12/07 04:30:37;;;;;;;37.50;22.88;;;1.50;99.90;;;;;;5077814;28;20075;-67
2023/12/07 04:33:03;;;;;;;32.50;21.63;;;1.40;99.90;;;;;;5094543;28;20066;-67
2023/12/07 04:35:29;;;;;;;34.95;21.67;;;1.40;99.90;;;;;;5077925;28;20479;-68
2023/12/07 04:37:55;;;;;;;42.88;24.50;;;1.30;99.90;;;;;;5094532;28;20232;-67
2023/12/07 04:40:21;;;;;;;39.15;23.83;;;1.30;99.90;;;;;;5094145;28;20040;-67
2023/12/07 04:42:46;;;;;;;34.55;22.48;;;1.30;99.90;;;;;;5094328;28;20036;-67
2023/12/07 04:45:12;;;;;;;40.28;23.55;;;1.20;99.90;;;;;;5077558;28;20118;-67
2023/12/07 04:47:38;;;;;;;34.72;22.83;;;1.20;99.90;;;;;;5095588;28;20546;-66
2023/12/07 04:50:05;;;;;;;37.78;23.55;;;1.20;99.90;;;;;;5098469;28;20043;-66
2023/12/07 04:52:30;;;;;;;37.53;23.35;;;1.20;99.90;;;;;;5098446;28;20044;-67
2023/12/07 04:54:56;;;;;;;40.42;23.88;;;1.10;99.90;;;;;;5098033;28;20142;-67
2023/12/07 04:57:22;;;;;;;46.70;25.48;;;1.20;99.90;;;;;;5081107;28;20039;-67
2023/12/07 04:59:48;;;;;;;45.00;24.73;;;1.20;99.90;;;;;;5098211;28;20118;-66
2023/12/07 05:02:17;;;;;;;37.97;24.05;;;1.20;99.90;;;;;;5097912;28;20088;-66
2023/12/07 05:04:44;;;;;;;38.42;24.08;;;1.10;99.90;;;;;;5081248;28;20042;-66
2023/12/07 05:07:13;;;;;;;45.53;26.08;;;1.10;99.90;;;;;;5080942;28;20040;-67
2023/12/07 05:09:40;;;;;;;45.67;25.83;;;1.10;99.90;;;;;;5097907;28;20075;-67
2023/12/07 05:12:06;;;;;;;47.50;27.02;;;1.10;99.90;;;;;;5097808;28;20050;-67
2023/12/07 05:14:32;;;;;;;44.45;26.23;;;1.10;99.90;;;;;;5097746;28;20047;-67
2023/12/07 05:16:58;;;;;;;46.30;26.70;;;1.10;99.90;;;;;;5097545;28;20035;-67
2023/12/07 05:19:27;;;;;;;43.58;25.92;;;1.10;99.90;;;;;;5098089;28;20032;-67
2023/12/07 05:21:53;;;;;;;50.40;28.48;;;1.10;99.90;;;;;;5097647;28;20047;-66
2023/12/07 05:24:19;;;;;;;41.55;26.08;;;1.00;99.90;;;;;;5097691;28;20035;-67
2023/12/07 05:26:46;;;;;;;48.25;27.88;;;1.00;99.90;;;;;;5097598;28;20039;-68
2023/12/07 05:29:12;;;;;;;48.92;27.98;;;1.00;99.90;;;;;;5097735;28;20126;-67
2023/12/07 05:31:38;;;;;;;48.67;29.25;;;1.00;99.90;;;;;;5097449;28;20035;-67
2023/12/07 05:34:05;;;;;;;46.13;28.33;;;1.00;99.90;;;;;;5097585;28;20487;-67
2023/12/07 05:36:31;;;;;;;49.13;28.20;;;1.00;99.90;;;;;;5097436;28;20118;-67
2023/12/07 05:38:57;;;;;;;49.83;29.23;;;1.00;99.90;;;;;;5097589;28;20387;-67
2023/12/07 05:41:23;;;;;;;41.97;27.85;;;1.00;99.90;;;;;;5097396;28;20152;-67
2023/12/07 05:43:49;;;;;;;49.05;30.25;;;1.00;99.90;;;;;;5115372;28;20114;-68
2023/12/07 05:46:15;;;;;;;47.28;28.65;;;1.00;99.90;;;;;;5097396;28;20122;-67
2023/12/07 05:48:41;;;;;;;50.75;29.25;;;1.00;99.90;;;;;;5063649;28;20035;-67
2023/12/07 05:51:13;;;;;;;51.63;30.50;;;1.00;99.90;;;;;;5097283;28;20038;-67
2023/12/07 05:53:39;;;;;;;58.95;30.90;;;1.00;99.90;;;;;;5097419;28;20522;-67
2023/12/07 05:56:04;;;;;;;49.53;30.52;;;1.00;99.90;;;;;;5079887;28;20051;-68
2023/12/07 05:58:30;;;;;;;51.25;29.55;;;1.00;99.90;;;;;;5096742;28;20050;-67
2023/12/07 06:00:56;;;;;;;50.45;29.60;;;1.00;99.90;;;;;;5096819;28;20039;-67
2023/12/07 06:03:22;;;;;;;49.72;30.42;;;1.00;99.90;;;;;;5080143;28;20039;-67
2023/12/07 06:05:49;;;;;;;54.42;30.50;;;0.90;99.90;;;;;;5096607;28;20046;-67
2023/12/07 06:08:14;;;;;;;47.13;29.63;;;1.20;99.90;;;;;;5097032;28;20039;-67
2023/12/07 06:10:40;;;;;;;50.55;29.77;;;0.90;99.90;;;;;;5080149;28;20044;-68
2023/12/07 06:13:06;;;;;;;55.25;31.05;;;0.90;99.90;;;;;;5096947;28;20053;-67
2023/12/07 06:15:33;;;;;;;59.25;31.27;;;0.90;99.90;;;;;;5079714;28;20035;-67
2023/12/07 06:17:58;;;;;;;60.97;31.83;;;0.80;99.90;;;;;;5096626;28;20032;-67
2023/12/07 06:20:24;;;;;;;52.17;31.48;;;0.90;99.90;;;;;;5062825;28;20082;-67
2023/12/07 06:22:50;;;;;;;46.08;29.15;;;0.80;99.90;;;;;;5096498;28;20043;-67
2023/12/07 06:25:16;;;;;;;50.63;29.73;;;0.80;99.90;;;;;;5096700;28;20127;-68
2023/12/07 06:27:42;;;;;;;47.80;29.95;;;0.80;99.90;;;;;;5096705;28;20084;-67
2023/12/07 06:30:08;;;;;;;44.47;28.05;;;0.70;99.90;;;;;;5096431;28;20043;-72
2023/12/07 06:32:34;;;;;;;48.88;29.10;;;0.70;99.90;;;;;;5096300;28;20036;-72
2023/12/07 06:35:00;;;;;;;51.67;29.63;;;0.70;99.90;;;;;;5079464;28;20403;-72
2023/12/07 06:37:26;;;;;;;50.88;29.83;;;0.70;99.90;;;;;;5095985;28;20036;-73
2023/12/07 06:39:52;;;;;;;46.90;27.40;;;0.70;99.90;;;;;;5096565;28;20058;-73
2023/12/07 06:42:18;;;;;;;50.72;28.48;;;0.60;99.90;;;;;;5096038;28;20040;-73
2023/12/07 06:44:49;;;;;;;56.28;30.42;;;0.60;99.90;;;;;;5079609;28;20126;-73
2023/12/07 06:47:15;;;;;;;49.72;28.73;;;0.70;99.90;;;;;;5114412;28;20066;-73
2023/12/07 06:49:41;;;;;;;47.30;28.25;;;0.70;99.90;;;;;;5096036;28;20173;-73
2023/12/07 06:52:06;;;;;;;49.03;28.83;;;0.70;99.90;;;;;;5096028;28;20490;-73
2023/12/07 06:54:33;;;;;;;51.78;29.00;;;0.70;99.90;;;;;;5095645;28;20056;-72
2023/12/07 06:56:59;;;;;;;53.15;28.50;;;0.70;99.90;;;;;;5095902;28;20047;-72
2023/12/07 06:59:25;;;;;;;54.55;29.92;;;0.70;99.90;;;;;;5095739;28;20453;-73
2023/12/07 07:01:50;;;;;;;51.50;28.33;;;0.70;99.90;;;;;;5095821;28;20039;-73
2023/12/07 07:04:16;;;;;;;43.05;26.67;;;0.70;99.90;;;;;;5096124;28;20398;-73
2023/12/07 07:06:42;;;;;;;53.00;29.27;;;0.80;99.90;;;;;;5078736;28;20126;-72
2023/12/07 07:09:08;;;;;;;56.50;29.70;;;0.80;99.90;;;;;;5095485;28;20403;-72
2023/12/07 07:11:34;;;;;;;49.47;28.60;;;0.80;99.90;;;;;;5061430;28;20047;-73
2023/12/07 07:14:00;;;;;;;51.13;29.42;;;0.90;99.90;;;;;;5078884;28;20051;-73
2023/12/07 07:16:26;;;;;;;53.83;30.58;;;0.80;99.90;;;;;;5078491;28;20054;-73
2023/12/07 07:18:52;;;;;;;51.15;29.02;;;0.90;99.90;;;;;;5095295;28;20039;-72
2023/12/07 07:21:19;;;;;;;54.90;30.25;;;0.90;99.90;;;;;;5078593;28;20123;-72
2023/12/07 07:23:45;;;;;;;49.30;28.40;;;0.90;99.90;;;;;;5095354;28;20050;-73
2023/12/07 07:26:16;;;;;;;59.00;30.83;;;0.90;99.90;;;;;;5078661;28;20071;-73
2023/12/07 07:28:42;;;;;;;47.10;28.77;;;0.90;99.90;;;;;;5095378;28;20058;-73
2023/12/07 07:31:08;;;;;;;56.75;29.48;;;1.00;99.90;;;;;;5095605;28;20532;-73
2023/12/07 07:33:34;;;;;;;53.05;29.13;;;0.90;99.90;;;;;;5095133;28;20041;-73
2023/12/07 07:35:59;;;;;;;52.25;28.90;;;1.00;99.90;;;;;;5095175;28;20085;-71
2023/12/07 07:38:25;;;;;;;53.33;29.98;;;0.90;99.90;;;;;;5061601;28;20048;-66
2023/12/07 07:40:51;;;;;;;54.70;29.77;;;0.90;99.90;;;;;;5095111;28;20071;-67
2023/12/07 07:43:17;;;;;;;49.78;29.08;;;0.90;99.90;;;;;;5078135;28;20050;-68
2023/12/07 07:45:43;;;;;;;53.00;29.27;;;0.90;99.90;;;;;;5095251;28;20039;-69
2023/12/07 07:48:09;;;;;;;48.72;28.85;;;0.90;99.90;;;;;;5095282;28;20556;-68
2023/12/07 07:50:36;;;;;;;48.50;28.40;;;0.90;99.90;;;;;;5055434;28;20087;-68
2023/12/07 07:53:03;;;;;;;52.90;30.17;;;0.90;99.90;;;;;;5091427;28;20047;-68
2023/12/07 07:55:29;;;;;;;53.45;30.30;;;0.90;99.90;;;;;;5094814;28;20060;-68
2023/12/07 07:57:55;;;;;;;49.83;29.45;;;0.90;99.90;;;;;;5094912;28;20542;-68
2023/12/07 08:00:21;;;;;;;48.20;28.80;;;0.90;99.90;;;;;;5094944;28;20036;-68
2023/12/07 08:02:47;;;;;;;44.78;28.38;;;0.90;99.90;;;;;;5094926;28;20411;-68
2023/12/07 08:05:13;;;;;;;53.30;31.08;;;0.90;99.90;;;;;;5078072;28;20040;-68
2023/12/07 08:07:42;;;;;;;54.70;31.40;;;1.00;99.90;;;;;;5094763;28;20043;-67
2023/12/07 08:10:08;;;;;;;49.83;30.02;;;1.00;99.90;;;;;;5094893;28;20047;-67
2023/12/07 08:12:35;;;;;;;54.30;31.15;;;1.00;99.90;;;;;;5094793;28;20083;-67
2023/12/07 08:15:01;;;;;;;50.70;30.17;;;1.00;99.90;;;;;;5094708;28;20043;-67
2023/12/07 08:17:27;;;;;;;53.92;31.65;;;1.10;99.90;;;;;;5094609;28;20078;-67
2023/12/07 08:19:53;;;;;;;48.63;30.20;;;1.10;99.90;;;;;;5094919;28;20036;-67
2023/12/07 08:22:20;;;;;;;50.75;31.55;;;1.30;99.90;;;;;;5096835;28;20054;-67
2023/12/07 08:24:45;;;;;;;46.25;29.52;;;1.10;99.90;;;;;;5081844;28;20071;-68
2023/12/07 08:27:11;;;;;;;47.28;28.95;;;1.20;99.90;;;;;;5081847;28;20495;-68
2023/12/07 08:29:37;;;;;;;51.53;31.45;;;1.10;99.90;;;;;;5098561;28;20043;-68
2023/12/07 08:32:03;;;;;;;49.25;30.88;;;1.20;99.90;;;;;;5098942;28;20112;-68
2023/12/07 08:34:29;;;;;;;61.53;36.70;;;1.20;99.90;;;;;;5098847;28;20538;-68
2023/12/07 08:36:55;;;;;;;58.13;34.97;;;1.30;99.90;;;;;;5081648;28;20100;-68
2023/12/07 08:39:21;;;;;;;62.72;38.88;;;1.40;99.90;;;;;;5098563;28;20437;-68
2023/12/07 08:41:47;;;;;;;61.45;39.83;;;1.50;99.90;;;;;;5081490;28;20172;-68
2023/12/07 08:44:12;;;;;;;68.07;39.88;;;1.80;99.90;;;;;;5098387;28;20035;-68
2023/12/07 08:46:38;;;;;;;60.15;37.25;;;1.90;99.90;;;;;;5098246;28;20071;-68
2023/12/07 08:49:04;;;;;;;56.72;36.45;;;1.90;99.90;;;;;;5081637;28;20455;-68
2023/12/07 08:51:30;;;;;;;51.75;35.53;;;1.90;99.90;;;;;;5098175;28;20043;-69
2023/12/07 08:53:56;;;;;;;56.08;35.38;;;1.90;99.90;;;;;;5098421;28;20403;-68
2023/12/07 08:56:21;;;;;;;56.20;36.53;;;1.90;99.90;;;;;;5081634;28;20036;-68
2023/12/07 08:58:47;;;;;;;55.67;35.55;;;2.00;99.90;;;;;;5081295;28;20127;-68
2023/12/07 09:01:13;;;;;;;54.03;34.95;;;2.20;99.90;;;;;;5097961;28;20158;-68
2023/12/07 09:03:39;;;;;;;48.65;33.33;;;2.30;99.90;;;;;;5097927;28;20501;-68
2023/12/07 09:06:05;;;;;;;52.45;34.33;;;2.30;99.90;;;;;;5098247;28;20032;-68
2023/12/07 09:08:31;;;;;;;48.72;33.17;;;2.40;99.90;;;;;;5098225;28;20065;-68
2023/12/07 09:10:57;;;;;;;48.30;32.85;;;2.40;99.90;;;;;;5097860;28;20045;-69
2023/12/07 09:13:23;;;;;;;48.92;33.47;;;2.50;99.90;;;;;;5080834;28;20040;-69
2023/12/07 09:15:48;;;;;;;45.60;31.58;;;2.50;99.90;;;;;;5081091;28;20565;-68
2023/12/07 09:18:14;;;;;;;41.13;29.20;;;2.50;99.90;;;;;;5097686;28;20058;-69
2023/12/07 09:20:45;;;;;;;41.67;28.27;;;2.40;99.90;;;;;;5097678;28;20036;-68
2023/12/07 09:23:17;;;;;;;39.92;28.92;;;2.30;99.90;;;;;;5097592;28;20047;-68
2023/12/07 09:25:43;;;;;;;39.00;28.25;;;2.20;99.90;;;;;;5097732;28;20124;-69
2023/12/07 09:28:09;;;;;;;38.33;28.27;;;2.10;99.90;;;;;;5097902;28;20050;-69
2023/12/07 09:30:35;;;;;;;42.53;29.83;;;2.10;99.90;;;;;;5097765;28;20031;-68
2023/12/07 09:33:04;;;;;;;46.00;30.67;;;2.10;99.90;;;;;;5096777;28;20079;-68
2023/12/07 09:35:30;;;;;;;44.00;29.90;;;2.10;99.90;;;;;;5097449;28;20244;-68
2023/12/07 09:37:56;;;;;;;48.28;31.98;;;2.20;99.90;;;;;;5097303;28;20083;-68
2023/12/07 09:40:24;;;;;;;42.95;29.08;;;2.20;99.90;;;;;;5097617;28;20545;-68
2023/12/07 09:42:50;;;;;;;44.88;30.27;;;2.20;99.90;;;;;;5097339;28;20040;-68
2023/12/07 09:45:19;;;;;;;49.78;30.40;;;2.00;99.90;;;;;;5097392;28;20031;-68
2023/12/07 09:47:54;;;;;;;55.58;29.92;;;1.90;99.90;;;;;;5080393;28;20040;-68
2023/12/07 09:50:22;;;;;;;60.90;30.63;;;1.80;99.90;;;;;;5097205;28;20075;-68
2023/12/07 09:52:55;;;;;;;78.05;30.60;;;1.80;99.90;;;;;;5097359;28;20036;-68
2023/12/07 09:55:22;;;;;;;115.68;32.40;;;1.80;99.90;;;;;;5096968;28;20094;-68
2023/12/07 09:57:48;;;;;;;69.68;30.35;;;1.70;99.90;;;;;;5063483;28;20078;-68
2023/12/07 10:00:15;;;;;;;42.30;27.02;;;1.60;99.90;;;;;;5097099;28;20123;-73
2023/12/07 10:02:42;;;;;;;44.42;27.42;;;1.60;99.90;;;;;;5097140;28;20047;-73
2023/12/07 10:05:10;;;;;;;43.08;28.15;;;1.60;99.90;;;;;;5096771;28;20119;-73
2023/12/07 10:07:39;;;;;;;42.05;27.17;;;1.70;99.90;;;;;;5097155;28;20368;-73
2023/12/07 10:10:06;;;;;;;46.20;26.77;;;1.70;99.90;;;;;;5096858;28;20163;-73
2023/12/07 10:12:35;;;;;;;43.67;25.23;;;1.70;99.90;;;;;;5097062;28;20371;-73
2023/12/07 10:15:13;;;;;;;36.97;24.05;;;1.70;99.90;;;;;;5079763;28;20039;-73
2023/12/07 10:17:52;;;;;;;50.45;23.50;;;1.70;99.90;;;;;;5096734;28;20517;-73
2023/12/07 10:20:23;;;;;;;44.80;22.92;;;1.70;99.90;;;;;;5096529;28;20101;-74
2023/12/07 10:23:10;;;;;;;36.60;20.75;;;1.60;99.90;;;;;;5096711;28;20028;-73
2023/12/07 10:25:41;;;;;;;87.80;24.80;;;1.60;99.90;;;;;;5096559;28;20127;-73
2023/12/07 10:28:08;;;;;;;159.75;29.80;;;1.70;99.90;;;;;;5096482;28;20046;-74
2023/12/07 10:30:34;;;;;;;50.67;27.25;;;1.50;99.90;;;;;;5096650;28;20068;-73
2023/12/07 10:33:02;;;;;;;67.75;29.38;;;1.40;99.90;;;;;;5096324;28;20038;-72
2023/12/07 10:35:29;;;;;;;93.55;29.33;;;1.50;99.90;;;;;;5096452;28;20043;-74
2023/12/07 10:37:54;;;;;;;64.35;27.95;;;1.40;99.90;;;;;;5096258;28;20506;-73
2023/12/07 10:40:20;;;;;;;163.55;33.40;;;1.50;99.90;;;;;;5096413;28;20027;-73
2023/12/07 10:42:48;;;;;;;94.90;30.05;;;1.50;99.90;;;;;;5096381;28;20085;-73
2023/12/07 10:45:18;;;;;;;89.43;27.05;;;1.50;99.90;;;;;;5078916;28;20047;-73
2023/12/07 10:47:44;;;;;;;60.70;31.05;;;1.70;99.90;;;;;;5096330;28;20503;-72
2023/12/07 10:50:13;;;;;;;116.38;34.60;;;1.60;99.90;;;;;;5096404;28;20483;-73
2023/12/07 10:52:57;;;;;;;70.70;31.85;;;1.60;99.90;;;;;;5096368;28;20039;-73
2023/12/07 10:55:34;;;;;;;75.18;29.77;;;1.60;99.90;;;;;;5095775;28;20571;-73
2023/12/07 10:58:01;;;;;;;59.50;30.55;;;1.60;99.90;;;;;;5095715;28;20043;-73
2023/12/07 11:00:28;;;;;;;54.67;21.65;;;1.60;99.90;;;;;;5096025;28;20475;-73
2023/12/07 11:02:54;;;;;;;62.42;29.88;;;1.80;99.90;;;;;;5095776;28;20096;-72
2023/12/07 11:05:21;;;;;;;57.30;28.48;;;1.70;99.90;;;;;;5095879;28;20039;-73
2023/12/07 11:07:54;;;;;;;55.97;26.58;;;1.70;99.90;;;;;;5079039;28;20073;-73
2023/12/07 11:10:33;;;;;;;49.45;28.60;;;1.80;99.90;;;;;;5079275;28;20122;-73
2023/12/07 11:13:33;;;;;;;52.83;29.85;;;1.70;99.90;;;;;;5095627;28;20048;-72
2023/12/07 11:16:00;;;;;;;58.75;26.65;;;1.70;99.90;;;;;;5095559;28;20046;-73
2023/12/07 11:18:26;;;;;;;56.78;23.23;;;1.80;99.90;;;;;;5095435;28;20128;-73
2023/12/07 11:20:54;;;;;;;58.00;28.92;;;1.70;99.90;;;;;;5095551;28;20040;-73
2023/12/07 11:23:20;;;;;;;60.35;30.17;;;1.70;99.90;;;;;;5061821;28;20032;-73
2023/12/07 11:25:47;;;;;;;53.58;32.38;;;1.60;99.90;;;;;;5095493;28;20047;-73
2023/12/07 11:28:13;;;;;;;59.33;31.95;;;1.60;99.90;;;;;;5078475;28;20043;-73
2023/12/07 11:30:43;;;;;;;53.15;32.30;;;1.90;99.90;;;;;;5095520;28;20043;-73
2023/12/07 11:33:09;;;;;;;56.55;32.25;;;1.70;99.90;;;;;;5095553;28;20040;-73
2023/12/07 11:36:01;;;;;;;75.68;34.42;;;1.70;99.90;;;;;;5095302;28;20051;-73
2023/12/07 11:38:27;;;;;;;118.47;35.22;;;1.70;99.90;;;;;;5083966;28;20087;-72
2023/12/07 11:40:55;;;;;;;105.65;35.20;;;1.80;99.90;;;;;;5078592;28;20077;-73
2023/12/07 11:43:33;;;;;;;108.13;33.00;;;1.80;99.90;;;;;;5078274;28;20043;-74
2023/12/07 11:45:59;;;;;;;66.50;33.20;;;1.70;99.90;;;;;;5078399;28;20479;-73
2023/12/07 11:48:25;;;;;;;65.47;28.55;;;1.80;99.90;;;;;;5095006;28;20123;-73
2023/12/07 11:50:58;;;;;;;82.78;25.17;;;1.80;99.90;;;;;;5095016;28;20123;-72
2023/12/07 11:53:31;;;;;;;64.80;29.90;;;1.80;99.90;;;;;;5095052;28;20123;-73
2023/12/07 11:55:58;;;;;;;55.25;25.55;;;1.70;99.90;;;;;;5094624;28;20059;-72
2023/12/07 11:58:25;;;;;;;76.30;30.95;;;1.80;99.90;;;;;;5094995;28;20506;-73
2023/12/07 12:00:52;;;;;;;76.18;29.95;;;1.80;99.90;;;;;;5095117;28;20066;-73
2023/12/07 12:03:19;;;;;;;84.97;32.95;;;1.70;99.90;;;;;;5095084;28;20471;-73
2023/12/07 12:05:45;;;;;;;65.80;32.28;;;1.70;99.90;;;;;;5095149;28;20475;-73
2023/12/07 12:08:11;;;;;;;62.42;32.03;;;1.70;99.90;;;;;;5094866;28;20043;-73
2023/12/07 12:10:38;;;;;;;93.47;34.88;;;1.70;99.90;;;;;;5094754;28;20051;-73
2023/12/07 12:13:04;;;;;;;76.90;33.35;;;1.80;99.90;;;;;;5095081;28;20035;-73
2023/12/07 12:15:30;;;;;;;78.47;35.25;;;1.80;99.90;;;;;;5094859;28;20122;-73
2023/12/07 12:18:00;;;;;;;73.75;34.80;;;1.90;99.90;;;;;;5094731;28;20059;-73
2023/12/07 12:20:26;;;;;;;66.72;32.67;;;1.80;99.90;;;;;;5094541;28;20043;-68
2023/12/07 12:22:55;;;;;;;74.07;34.75;;;1.90;99.90;;;;;;5094771;28;20032;-68
2023/12/07 12:25:30;;;;;;;72.05;34.08;;;1.80;99.90;;;;;;5077976;28;20066;-68
2023/12/07 12:28:03;;;;;;;67.68;31.17;;;1.80;99.90;;;;;;5094525;28;20169;-68
2023/12/07 12:30:30;;;;;;;77.10;32.85;;;1.90;99.90;;;;;;5094535;28;20046;-67
2023/12/07 12:32:56;;;;;;;90.00;32.17;;;1.90;99.90;;;;;;5094915;28;20040;-67
2023/12/07 12:35:22;;;;;;;78.75;32.88;;;1.90;99.90;;;;;;5094601;28;20058;-69